sensor_id;sensor_type;location;lat;lon;timestamp;P1;durP1;ratioP1;P2;durP2;ratioP2
32445;SDS011;18899;50.748;7.102;2022-12-07T00:01:37;33.20;;;13.98;;
32445;SDS011;18899;50.748;7.102;2022-12-07T00:04:04;27.70;;;12.70;;
32445;SDS011;18899;50.748;7.102;2022-12-07T00:06:38;31.38;;;13.27;;
32445;SDS011;18899;50.748;7.102;2022-12-07T00:09:05;31.35;;;14.60;;
32445;SDS011;18899;50.748;7.102;2022-12-07T00:11:31;31.98;;;14.88;;
32445;SDS011;18899;50.748;7.102;2022-12-07T00:13:59;34.55;;;14.57;;
32445;SDS011;18899;50.748;7.102;2022-12-07T00:16:27;36.75;;;16.00;;
32445;SDS011;18899;50.748;7.102;2022-12-07T00:18:54;32.50;;;14.93;;
32445;SDS011;18899;50.748;7.102;2022-12-07T00:21:21;36.28;;;16.33;;
32445;SDS011;18899;50.748;7.102;2022-12-07T00:23:49;31.98;;;15.13;;
32445;SDS011;18899;50.748;7.102;2022-12-07T00:26:26;33.60;;;16.33;;
32445;SDS011;18899;50.748;7.102;2022-12-07T00:29:01;34.33;;;16.05;;
32445;SDS011;18899;50.748;7.102;2022-12-07T00:33:58;38.53;;;17.60;;
32445;SDS011;18899;50.748;7.102;2022-12-07T00:36:24;31.90;;;16.00;;
32445;SDS011;18899;50.748;7.102;2022-12-07T00:38:50;31.13;;;15.60;;
32445;SDS011;18899;50.748;7.102;2022-12-07T00:41:19;33.03;;;15.57;;
32445;SDS011;18899;50.748;7.102;2022-12-07T00:43:46;33.80;;;15.70;;
32445;SDS011;18899;50.748;7.102;2022-12-07T00:46:13;30.42;;;14.40;;
32445;SDS011;18899;50.748;7.102;2022-12-07T00:48:39;32.38;;;14.77;;
32445;SDS011;18899;50.748;7.102;2022-12-07T00:51:06;33.63;;;15.27;;
32445;SDS011;18899;50.748;7.102;2022-12-07T00:53:35;32.65;;;14.35;;
32445;SDS011;18899;50.748;7.102;2022-12-07T00:56:05;33.88;;;14.70;;
32445;SDS011;18899;50.748;7.102;2022-12-07T00:58:36;29.45;;;14.77;;
32445;SDS011;18899;50.748;7.102;2022-12-07T01:01:03;29.60;;;15.82;;
32445;SDS011;18899;50.748;7.102;2022-12-07T01:03:30;29.73;;;14.77;;
32445;SDS011;18899;50.748;7.102;2022-12-07T01:05:55;32.63;;;14.65;;
32445;SDS011;18899;50.748;7.102;2022-12-07T01:08:22;28.70;;;14.93;;
32445;SDS011;18899;50.748;7.102;2022-12-07T01:10:48;29.80;;;14.98;;
32445;SDS011;18899;50.748;7.102;2022-12-07T01:13:14;27.63;;;15.10;;
32445;SDS011;18899;50.748;7.102;2022-12-07T01:15:41;28.83;;;14.70;;
32445;SDS011;18899;50.748;7.102;2022-12-07T01:18:08;30.40;;;15.30;;
32445;SDS011;18899;50.748;7.102;2022-12-07T01:20:34;29.73;;;15.18;;
32445;SDS011;18899;50.748;7.102;2022-12-07T01:23:00;26.42;;;14.48;;
32445;SDS011;18899;50.748;7.102;2022-12-07T01:25:26;30.88;;;14.30;;
32445;SDS011;18899;50.748;7.102;2022-12-07T01:27:52;26.08;;;14.13;;
32445;SDS011;18899;50.748;7.102;2022-12-07T01:30:18;32.05;;;14.18;;
32445;SDS011;18899;50.748;7.102;2022-12-07T01:32:43;28.33;;;14.30;;
32445;SDS011;18899;50.748;7.102;2022-12-07T01:35:09;30.75;;;14.93;;
32445;SDS011;18899;50.748;7.102;2022-12-07T01:37:35;32.65;;;14.98;;
32445;SDS011;18899;50.748;7.102;2022-12-07T01:40:02;26.60;;;14.57;;
32445;SDS011;18899;50.748;7.102;2022-12-07T01:42:32;31.67;;;15.77;;
32445;SDS011;18899;50.748;7.102;2022-12-07T01:47:42;30.83;;;15.10;;
32445;SDS011;18899;50.748;7.102;2022-12-07T01:50:11;28.95;;;13.70;;
32445;SDS011;18899;50.748;7.102;2022-12-07T01:52:38;30.67;;;15.25;;
32445;SDS011;18899;50.748;7.102;2022-12-07T01:55:05;28.40;;;15.00;;
32445;SDS011;18899;50.748;7.102;2022-12-07T01:57:38;25.63;;;14.15;;
32445;SDS011;18899;50.748;7.102;2022-12-07T02:00:06;26.38;;;14.48;;
32445;SDS011;18899;50.748;7.102;2022-12-07T02:02:33;24.25;;;12.52;;
32445;SDS011;18899;50.748;7.102;2022-12-07T02:05:03;25.13;;;14.25;;
32445;SDS011;18899;50.748;7.102;2022-12-07T02:07:30;26.75;;;13.55;;
32445;SDS011;18899;50.748;7.102;2022-12-07T02:09:57;33.78;;;14.95;;
32445;SDS011;18899;50.748;7.102;2022-12-07T02:12:39;27.48;;;14.43;;
32445;SDS011;18899;50.748;7.102;2022-12-07T02:15:05;29.85;;;15.98;;
32445;SDS011;18899;50.748;7.102;2022-12-07T02:20:23;31.67;;;16.08;;
32445;SDS011;18899;50.748;7.102;2022-12-07T02:30:54;31.10;;;16.35;;
32445;SDS011;18899;50.748;7.102;2022-12-07T02:33:32;36.30;;;16.95;;
32445;SDS011;18899;50.748;7.102;2022-12-07T02:39:32;38.38;;;17.70;;
32445;SDS011;18899;50.748;7.102;2022-12-07T02:41:48;32.25;;;16.33;;
32445;SDS011;18899;50.748;7.102;2022-12-07T02:44:20;28.23;;;15.25;;
32445;SDS011;18899;50.748;7.102;2022-12-07T02:46:57;26.80;;;14.45;;
32445;SDS011;18899;50.748;7.102;2022-12-07T02:49:28;25.42;;;14.52;;
32445;SDS011;18899;50.748;7.102;2022-12-07T02:51:55;30.50;;;15.68;;
32445;SDS011;18899;50.748;7.102;2022-12-07T02:54:20;30.00;;;14.50;;
32445;SDS011;18899;50.748;7.102;2022-12-07T02:56:50;34.72;;;16.05;;
32445;SDS011;18899;50.748;7.102;2022-12-07T03:05:12;32.97;;;15.70;;
32445;SDS011;18899;50.748;7.102;2022-12-07T03:10:43;29.95;;;15.25;;
32445;SDS011;18899;50.748;7.102;2022-12-07T03:21:43;27.90;;;14.98;;
32445;SDS011;18899;50.748;7.102;2022-12-07T03:24:15;28.90;;;14.70;;
32445;SDS011;18899;50.748;7.102;2022-12-07T03:26:48;29.63;;;15.80;;
32445;SDS011;18899;50.748;7.102;2022-12-07T03:29:19;32.72;;;16.25;;
32445;SDS011;18899;50.748;7.102;2022-12-07T03:32:01;28.13;;;15.48;;
32445;SDS011;18899;50.748;7.102;2022-12-07T03:34:39;27.45;;;14.85;;
32445;SDS011;18899;50.748;7.102;2022-12-07T03:37:18;28.88;;;15.48;;
32445;SDS011;18899;50.748;7.102;2022-12-07T03:42:31;27.13;;;15.25;;
32445;SDS011;18899;50.748;7.102;2022-12-07T03:44:58;27.98;;;14.60;;
32445;SDS011;18899;50.748;7.102;2022-12-07T03:53:19;27.02;;;15.40;;
32445;SDS011;18899;50.748;7.102;2022-12-07T03:55:51;32.05;;;14.93;;
32445;SDS011;18899;50.748;7.102;2022-12-07T03:58:19;32.45;;;15.77;;
32445;SDS011;18899;50.748;7.102;2022-12-07T04:00:56;27.70;;;15.10;;
32445;SDS011;18899;50.748;7.102;2022-12-07T04:03:21;31.35;;;15.27;;
32445;SDS011;18899;50.748;7.102;2022-12-07T04:05:47;31.20;;;16.45;;
32445;SDS011;18899;50.748;7.102;2022-12-07T04:08:13;33.08;;;15.32;;
32445;SDS011;18899;50.748;7.102;2022-12-07T04:10:38;29.55;;;16.25;;
32445;SDS011;18899;50.748;7.102;2022-12-07T04:13:04;34.25;;;15.73;;
32445;SDS011;18899;50.748;7.102;2022-12-07T04:15:29;31.25;;;16.63;;
32445;SDS011;18899;50.748;7.102;2022-12-07T04:17:55;31.33;;;15.13;;
32445;SDS011;18899;50.748;7.102;2022-12-07T04:20:20;30.10;;;15.50;;
32445;SDS011;18899;50.748;7.102;2022-12-07T04:22:46;33.00;;;15.27;;
32445;SDS011;18899;50.748;7.102;2022-12-07T04:25:12;32.60;;;15.10;;
32445;SDS011;18899;50.748;7.102;2022-12-07T04:27:37;32.13;;;15.18;;
32445;SDS011;18899;50.748;7.102;2022-12-07T04:30:03;29.42;;;15.82;;
32445;SDS011;18899;50.748;7.102;2022-12-07T04:32:29;33.75;;;17.10;;
32445;SDS011;18899;50.748;7.102;2022-12-07T04:34:55;37.53;;;16.75;;
32445;SDS011;18899;50.748;7.102;2022-12-07T04:37:20;30.67;;;17.30;;
32445;SDS011;18899;50.748;7.102;2022-12-07T04:39:46;30.85;;;16.55;;
32445;SDS011;18899;50.748;7.102;2022-12-07T04:42:12;33.03;;;16.67;;
32445;SDS011;18899;50.748;7.102;2022-12-07T04:44:40;36.25;;;16.52;;
32445;SDS011;18899;50.748;7.102;2022-12-07T04:47:06;37.50;;;16.80;;
32445;SDS011;18899;50.748;7.102;2022-12-07T04:49:31;34.30;;;16.65;;
32445;SDS011;18899;50.748;7.102;2022-12-07T04:51:57;32.78;;;16.80;;
32445;SDS011;18899;50.748;7.102;2022-12-07T04:54:22;33.47;;;16.33;;
32445;SDS011;18899;50.748;7.102;2022-12-07T04:56:48;33.05;;;16.65;;
32445;SDS011;18899;50.748;7.102;2022-12-07T04:59:14;30.17;;;15.52;;
32445;SDS011;18899;50.748;7.102;2022-12-07T05:01:41;29.17;;;15.75;;
32445;SDS011;18899;50.748;7.102;2022-12-07T05:04:07;29.98;;;15.90;;
32445;SDS011;18899;50.748;7.102;2022-12-07T05:06:33;39.00;;;16.17;;
32445;SDS011;18899;50.748;7.102;2022-12-07T05:08:58;32.30;;;17.23;;
32445;SDS011;18899;50.748;7.102;2022-12-07T05:11:24;31.33;;;15.32;;
32445;SDS011;18899;50.748;7.102;2022-12-07T05:14:10;30.02;;;15.60;;
32445;SDS011;18899;50.748;7.102;2022-12-07T05:16:36;31.35;;;15.60;;
32445;SDS011;18899;50.748;7.102;2022-12-07T05:19:02;31.02;;;14.52;;
32445;SDS011;18899;50.748;7.102;2022-12-07T05:21:28;27.05;;;14.10;;
32445;SDS011;18899;50.748;7.102;2022-12-07T05:23:53;34.83;;;15.68;;
32445;SDS011;18899;50.748;7.102;2022-12-07T05:26:19;29.98;;;15.25;;
32445;SDS011;18899;50.748;7.102;2022-12-07T05:28:45;29.52;;;14.93;;
32445;SDS011;18899;50.748;7.102;2022-12-07T05:31:14;34.67;;;15.93;;
32445;SDS011;18899;50.748;7.102;2022-12-07T05:33:39;32.17;;;16.27;;
32445;SDS011;18899;50.748;7.102;2022-12-07T05:36:05;30.30;;;15.45;;
32445;SDS011;18899;50.748;7.102;2022-12-07T05:38:32;31.85;;;15.82;;
32445;SDS011;18899;50.748;7.102;2022-12-07T05:41:04;33.47;;;14.82;;
32445;SDS011;18899;50.748;7.102;2022-12-07T05:43:31;33.72;;;15.38;;
32445;SDS011;18899;50.748;7.102;2022-12-07T05:45:57;35.70;;;16.75;;
32445;SDS011;18899;50.748;7.102;2022-12-07T05:48:23;32.55;;;15.50;;
32445;SDS011;18899;50.748;7.102;2022-12-07T05:50:49;33.30;;;15.05;;
32445;SDS011;18899;50.748;7.102;2022-12-07T05:53:15;28.75;;;14.60;;
32445;SDS011;18899;50.748;7.102;2022-12-07T05:55:42;33.80;;;14.55;;
32445;SDS011;18899;50.748;7.102;2022-12-07T05:58:09;35.50;;;14.18;;
32445;SDS011;18899;50.748;7.102;2022-12-07T06:00:54;35.15;;;14.82;;
32445;SDS011;18899;50.748;7.102;2022-12-07T06:03:20;28.95;;;14.45;;
32445;SDS011;18899;50.748;7.102;2022-12-07T06:05:46;26.23;;;14.35;;
32445;SDS011;18899;50.748;7.102;2022-12-07T06:08:11;32.67;;;14.30;;
32445;SDS011;18899;50.748;7.102;2022-12-07T06:10:39;28.17;;;14.13;;
32445;SDS011;18899;50.748;7.102;2022-12-07T06:13:05;32.95;;;13.80;;
32445;SDS011;18899;50.748;7.102;2022-12-07T06:15:31;30.00;;;13.30;;
32445;SDS011;18899;50.748;7.102;2022-12-07T06:17:56;31.50;;;14.63;;
32445;SDS011;18899;50.748;7.102;2022-12-07T06:20:22;32.53;;;13.25;;
32445;SDS011;18899;50.748;7.102;2022-12-07T06:22:47;32.30;;;14.60;;
32445;SDS011;18899;50.748;7.102;2022-12-07T06:25:13;33.00;;;14.93;;
32445;SDS011;18899;50.748;7.102;2022-12-07T06:27:38;29.48;;;13.63;;
32445;SDS011;18899;50.748;7.102;2022-12-07T06:30:04;27.73;;;13.73;;
32445;SDS011;18899;50.748;7.102;2022-12-07T06:32:32;29.80;;;14.13;;
32445;SDS011;18899;50.748;7.102;2022-12-07T06:34:58;29.73;;;13.70;;
32445;SDS011;18899;50.748;7.102;2022-12-07T06:37:24;32.05;;;13.27;;
32445;SDS011;18899;50.748;7.102;2022-12-07T06:39:50;31.30;;;13.63;;
32445;SDS011;18899;50.748;7.102;2022-12-07T06:42:15;25.23;;;12.82;;
32445;SDS011;18899;50.748;7.102;2022-12-07T06:44:41;29.65;;;14.07;;
32445;SDS011;18899;50.748;7.102;2022-12-07T06:47:06;33.78;;;12.68;;
32445;SDS011;18899;50.748;7.102;2022-12-07T06:49:32;27.98;;;13.63;;
32445;SDS011;18899;50.748;7.102;2022-12-07T06:51:58;26.52;;;13.10;;
32445;SDS011;18899;50.748;7.102;2022-12-07T06:54:24;32.47;;;14.40;;
32445;SDS011;18899;50.748;7.102;2022-12-07T06:56:50;31.90;;;13.60;;
32445;SDS011;18899;50.748;7.102;2022-12-07T06:59:15;32.55;;;15.27;;
32445;SDS011;18899;50.748;7.102;2022-12-07T07:01:41;29.88;;;14.02;;
32445;SDS011;18899;50.748;7.102;2022-12-07T07:04:06;35.33;;;15.57;;
32445;SDS011;18899;50.748;7.102;2022-12-07T07:06:32;37.13;;;15.10;;
32445;SDS011;18899;50.748;7.102;2022-12-07T07:08:58;35.25;;;15.50;;
32445;SDS011;18899;50.748;7.102;2022-12-07T07:11:23;30.25;;;14.30;;
32445;SDS011;18899;50.748;7.102;2022-12-07T07:13:49;34.83;;;15.85;;
32445;SDS011;18899;50.748;7.102;2022-12-07T07:16:14;36.70;;;15.13;;
32445;SDS011;18899;50.748;7.102;2022-12-07T07:18:40;33.33;;;15.30;;
32445;SDS011;18899;50.748;7.102;2022-12-07T07:21:05;36.75;;;15.45;;
32445;SDS011;18899;50.748;7.102;2022-12-07T07:23:31;27.20;;;13.30;;
32445;SDS011;18899;50.748;7.102;2022-12-07T07:25:56;29.83;;;13.23;;
32445;SDS011;18899;50.748;7.102;2022-12-07T07:28:22;26.77;;;12.45;;
32445;SDS011;18899;50.748;7.102;2022-12-07T07:30:48;27.38;;;12.70;;
32445;SDS011;18899;50.748;7.102;2022-12-07T07:33:13;29.95;;;12.70;;
32445;SDS011;18899;50.748;7.102;2022-12-07T07:35:39;28.95;;;12.20;;
32445;SDS011;18899;50.748;7.102;2022-12-07T07:38:04;30.92;;;11.93;;
32445;SDS011;18899;50.748;7.102;2022-12-07T07:40:31;36.45;;;13.15;;
32445;SDS011;18899;50.748;7.102;2022-12-07T07:42:57;29.80;;;13.15;;
32445;SDS011;18899;50.748;7.102;2022-12-07T07:45:23;27.67;;;12.77;;
32445;SDS011;18899;50.748;7.102;2022-12-07T07:47:51;29.92;;;12.98;;
32445;SDS011;18899;50.748;7.102;2022-12-07T07:50:16;25.52;;;12.35;;
32445;SDS011;18899;50.748;7.102;2022-12-07T07:52:43;27.65;;;11.88;;
32445;SDS011;18899;50.748;7.102;2022-12-07T07:55:09;32.22;;;12.18;;
32445;SDS011;18899;50.748;7.102;2022-12-07T07:57:36;25.70;;;12.57;;
32445;SDS011;18899;50.748;7.102;2022-12-07T08:00:10;27.35;;;13.82;;
32445;SDS011;18899;50.748;7.102;2022-12-07T08:02:38;29.08;;;12.38;;
32445;SDS011;18899;50.748;7.102;2022-12-07T08:05:04;28.98;;;13.38;;
32445;SDS011;18899;50.748;7.102;2022-12-07T08:07:30;31.55;;;14.18;;
32445;SDS011;18899;50.748;7.102;2022-12-07T08:09:56;33.03;;;15.25;;
32445;SDS011;18899;50.748;7.102;2022-12-07T08:12:21;35.35;;;15.35;;
32445;SDS011;18899;50.748;7.102;2022-12-07T08:14:47;31.85;;;14.57;;
32445;SDS011;18899;50.748;7.102;2022-12-07T08:17:13;34.75;;;14.45;;
32445;SDS011;18899;50.748;7.102;2022-12-07T08:19:38;30.00;;;13.95;;
32445;SDS011;18899;50.748;7.102;2022-12-07T08:22:04;25.67;;;13.02;;
32445;SDS011;18899;50.748;7.102;2022-12-07T08:24:29;33.60;;;14.20;;
32445;SDS011;18899;50.748;7.102;2022-12-07T08:26:57;27.17;;;13.95;;
32445;SDS011;18899;50.748;7.102;2022-12-07T08:29:23;33.55;;;14.15;;
32445;SDS011;18899;50.748;7.102;2022-12-07T08:31:48;34.88;;;14.25;;
32445;SDS011;18899;50.748;7.102;2022-12-07T08:34:15;30.60;;;14.05;;
32445;SDS011;18899;50.748;7.102;2022-12-07T08:36:40;30.08;;;14.18;;
32445;SDS011;18899;50.748;7.102;2022-12-07T08:39:06;32.75;;;13.48;;
32445;SDS011;18899;50.748;7.102;2022-12-07T08:41:32;36.92;;;14.02;;
32445;SDS011;18899;50.748;7.102;2022-12-07T08:43:58;28.73;;;13.68;;
32445;SDS011;18899;50.748;7.102;2022-12-07T08:48:55;23.20;;;12.60;;
32445;SDS011;18899;50.748;7.102;2022-12-07T08:51:23;27.63;;;11.82;;
32445;SDS011;18899;50.748;7.102;2022-12-07T08:53:49;29.73;;;13.10;;
32445;SDS011;18899;50.748;7.102;2022-12-07T08:56:16;30.63;;;11.93;;
32445;SDS011;18899;50.748;7.102;2022-12-07T08:58:42;24.33;;;11.88;;
32445;SDS011;18899;50.748;7.102;2022-12-07T09:01:08;25.70;;;11.60;;
32445;SDS011;18899;50.748;7.102;2022-12-07T09:03:34;25.55;;;11.30;;
32445;SDS011;18899;50.748;7.102;2022-12-07T09:06:01;26.50;;;12.18;;
32445;SDS011;18899;50.748;7.102;2022-12-07T09:08:29;22.13;;;10.90;;
32445;SDS011;18899;50.748;7.102;2022-12-07T09:10:59;20.85;;;10.40;;
32445;SDS011;18899;50.748;7.102;2022-12-07T09:13:25;25.48;;;10.98;;
32445;SDS011;18899;50.748;7.102;2022-12-07T09:15:51;24.50;;;11.07;;
32445;SDS011;18899;50.748;7.102;2022-12-07T09:18:16;20.98;;;9.85;;
32445;SDS011;18899;50.748;7.102;2022-12-07T09:20:42;26.60;;;10.88;;
32445;SDS011;18899;50.748;7.102;2022-12-07T09:23:07;24.48;;;10.23;;
32445;SDS011;18899;50.748;7.102;2022-12-07T09:25:33;22.27;;;10.15;;
32445;SDS011;18899;50.748;7.102;2022-12-07T09:27:59;21.38;;;10.32;;
32445;SDS011;18899;50.748;7.102;2022-12-07T09:30:26;28.58;;;11.70;;
32445;SDS011;18899;50.748;7.102;2022-12-07T09:32:53;20.92;;;9.95;;
32445;SDS011;18899;50.748;7.102;2022-12-07T09:35:19;22.65;;;9.85;;
32445;SDS011;18899;50.748;7.102;2022-12-07T09:37:44;23.75;;;9.88;;
32445;SDS011;18899;50.748;7.102;2022-12-07T09:40:10;17.55;;;8.80;;
32445;SDS011;18899;50.748;7.102;2022-12-07T09:42:38;21.40;;;9.15;;
32445;SDS011;18899;50.748;7.102;2022-12-07T09:45:12;24.80;;;10.07;;
32445;SDS011;18899;50.748;7.102;2022-12-07T09:47:45;21.48;;;9.60;;
32445;SDS011;18899;50.748;7.102;2022-12-07T09:50:24;19.10;;;9.27;;
32445;SDS011;18899;50.748;7.102;2022-12-07T09:52:52;25.58;;;9.18;;
32445;SDS011;18899;50.748;7.102;2022-12-07T09:55:28;21.75;;;9.50;;
32445;SDS011;18899;50.748;7.102;2022-12-07T09:57:55;20.15;;;9.10;;
32445;SDS011;18899;50.748;7.102;2022-12-07T10:00:22;18.25;;;8.50;;
32445;SDS011;18899;50.748;7.102;2022-12-07T10:02:55;20.52;;;9.07;;
32445;SDS011;18899;50.748;7.102;2022-12-07T10:05:24;18.25;;;8.15;;
32445;SDS011;18899;50.748;7.102;2022-12-07T10:07:53;20.15;;;8.90;;
32445;SDS011;18899;50.748;7.102;2022-12-07T10:10:22;19.13;;;7.38;;
32445;SDS011;18899;50.748;7.102;2022-12-07T10:15:49;19.52;;;7.72;;
32445;SDS011;18899;50.748;7.102;2022-12-07T10:20:46;20.50;;;8.18;;
32445;SDS011;18899;50.748;7.102;2022-12-07T10:23:21;22.40;;;8.43;;
32445;SDS011;18899;50.748;7.102;2022-12-07T10:25:47;13.88;;;7.45;;
32445;SDS011;18899;50.748;7.102;2022-12-07T10:28:15;16.13;;;7.50;;
32445;SDS011;18899;50.748;7.102;2022-12-07T10:30:48;14.90;;;7.70;;
32445;SDS011;18899;50.748;7.102;2022-12-07T10:33:38;15.93;;;7.15;;
32445;SDS011;18899;50.748;7.102;2022-12-07T10:36:16;19.83;;;7.15;;
32445;SDS011;18899;50.748;7.102;2022-12-07T10:38:52;14.80;;;6.68;;
32445;SDS011;18899;50.748;7.102;2022-12-07T10:41:23;14.75;;;7.15;;
32445;SDS011;18899;50.748;7.102;2022-12-07T10:43:53;19.92;;;7.97;;
32445;SDS011;18899;50.748;7.102;2022-12-07T10:55:25;19.10;;;7.28;;
32445;SDS011;18899;50.748;7.102;2022-12-07T10:58:18;15.95;;;6.72;;
32445;SDS011;18899;50.748;7.102;2022-12-07T11:01:13;16.20;;;6.72;;
32445;SDS011;18899;50.748;7.102;2022-12-07T11:10:02;12.88;;;5.85;;
32445;SDS011;18899;50.748;7.102;2022-12-07T11:24:30;9.50;;;4.70;;
32445;SDS011;18899;50.748;7.102;2022-12-07T11:32:37;15.43;;;5.35;;
32445;SDS011;18899;50.748;7.102;2022-12-07T11:35:24;9.75;;;4.72;;
32445;SDS011;18899;50.748;7.102;2022-12-07T11:37:59;11.82;;;5.03;;
32445;SDS011;18899;50.748;7.102;2022-12-07T11:40:35;10.48;;;4.47;;
32445;SDS011;18899;50.748;7.102;2022-12-07T11:45:56;8.40;;;4.60;;
32445;SDS011;18899;50.748;7.102;2022-12-07T11:51:10;14.30;;;3.60;;
32445;SDS011;18899;50.748;7.102;2022-12-07T11:53:51;15.60;;;4.15;;
32445;SDS011;18899;50.748;7.102;2022-12-07T11:56:25;9.93;;;3.85;;
32445;SDS011;18899;50.748;7.102;2022-12-07T12:06:34;9.23;;;3.80;;
32445;SDS011;18899;50.748;7.102;2022-12-07T12:20:23;8.90;;;3.15;;
32445;SDS011;18899;50.748;7.102;2022-12-07T12:23:14;12.25;;;3.42;;
32445;SDS011;18899;50.748;7.102;2022-12-07T12:25:48;7.95;;;3.15;;
32445;SDS011;18899;50.748;7.102;2022-12-07T12:44:11;8.48;;;3.60;;
32445;SDS011;18899;50.748;7.102;2022-12-07T12:47:04;13.60;;;3.92;;
32445;SDS011;18899;50.748;7.102;2022-12-07T12:50:20;12.65;;;3.92;;
32445;SDS011;18899;50.748;7.102;2022-12-07T12:52:49;10.03;;;3.77;;
32445;SDS011;18899;50.748;7.102;2022-12-07T12:55:18;9.07;;;3.58;;
32445;SDS011;18899;50.748;7.102;2022-12-07T12:57:48;8.63;;;3.70;;
32445;SDS011;18899;50.748;7.102;2022-12-07T13:00:47;9.25;;;3.42;;
32445;SDS011;18899;50.748;7.102;2022-12-07T13:03:34;13.20;;;3.50;;
32445;SDS011;18899;50.748;7.102;2022-12-07T13:08:58;10.88;;;3.88;;
32445;SDS011;18899;50.748;7.102;2022-12-07T13:11:29;9.13;;;3.95;;
32445;SDS011;18899;50.748;7.102;2022-12-07T13:17:12;9.25;;;4.03;;
32445;SDS011;18899;50.748;7.102;2022-12-07T13:20:00;11.18;;;4.38;;
32445;SDS011;18899;50.748;7.102;2022-12-07T13:27:47;10.85;;;4.45;;
32445;SDS011;18899;50.748;7.102;2022-12-07T13:30:20;10.60;;;4.07;;
32445;SDS011;18899;50.748;7.102;2022-12-07T13:32:51;14.63;;;4.80;;
32445;SDS011;18899;50.748;7.102;2022-12-07T13:35:28;12.43;;;5.03;;
32445;SDS011;18899;50.748;7.102;2022-12-07T13:38:04;10.15;;;4.07;;
32445;SDS011;18899;50.748;7.102;2022-12-07T13:43:44;9.30;;;4.40;;
32445;SDS011;18899;50.748;7.102;2022-12-07T13:46:10;13.75;;;5.03;;
32445;SDS011;18899;50.748;7.102;2022-12-07T13:51:16;11.95;;;4.70;;
32445;SDS011;18899;50.748;7.102;2022-12-07T13:53:49;10.60;;;5.70;;
32445;SDS011;18899;50.748;7.102;2022-12-07T13:56:35;10.77;;;5.35;;
32445;SDS011;18899;50.748;7.102;2022-12-07T13:59:01;12.93;;;5.53;;
32445;SDS011;18899;50.748;7.102;2022-12-07T14:01:28;19.00;;;6.22;;
32445;SDS011;18899;50.748;7.102;2022-12-07T14:03:56;10.27;;;5.20;;
32445;SDS011;18899;50.748;7.102;2022-12-07T14:06:56;14.82;;;5.10;;
32445;SDS011;18899;50.748;7.102;2022-12-07T14:09:23;14.18;;;5.30;;
32445;SDS011;18899;50.748;7.102;2022-12-07T14:11:51;11.23;;;5.30;;
32445;SDS011;18899;50.748;7.102;2022-12-07T14:14:28;10.02;;;4.65;;
32445;SDS011;18899;50.748;7.102;2022-12-07T14:17:10;12.15;;;3.72;;
32445;SDS011;18899;50.748;7.102;2022-12-07T14:19:58;9.02;;;3.65;;
32445;SDS011;18899;50.748;7.102;2022-12-07T14:22:36;7.07;;;3.10;;
32445;SDS011;18899;50.748;7.102;2022-12-07T14:25:14;9.43;;;3.28;;
32445;SDS011;18899;50.748;7.102;2022-12-07T14:27:47;9.98;;;3.65;;
32445;SDS011;18899;50.748;7.102;2022-12-07T14:30:15;9.93;;;3.50;;
32445;SDS011;18899;50.748;7.102;2022-12-07T14:32:42;7.07;;;2.83;;
32445;SDS011;18899;50.748;7.102;2022-12-07T14:35:13;8.60;;;2.77;;
32445;SDS011;18899;50.748;7.102;2022-12-07T14:37:41;5.90;;;2.30;;
32445;SDS011;18899;50.748;7.102;2022-12-07T14:40:09;5.55;;;1.77;;
32445;SDS011;18899;50.748;7.102;2022-12-07T14:42:38;4.68;;;1.48;;
32445;SDS011;18899;50.748;7.102;2022-12-07T14:45:05;4.90;;;1.90;;
32445;SDS011;18899;50.748;7.102;2022-12-07T14:50:01;9.25;;;2.70;;
32445;SDS011;18899;50.748;7.102;2022-12-07T14:52:27;5.07;;;2.30;;
32445;SDS011;18899;50.748;7.102;2022-12-07T14:54:55;4.60;;;2.15;;
32445;SDS011;18899;50.748;7.102;2022-12-07T14:57:20;8.10;;;2.75;;
32445;SDS011;18899;50.748;7.102;2022-12-07T14:59:46;5.05;;;2.20;;
32445;SDS011;18899;50.748;7.102;2022-12-07T15:02:13;6.28;;;2.67;;
32445;SDS011;18899;50.748;7.102;2022-12-07T15:04:39;5.82;;;2.63;;
32445;SDS011;18899;50.748;7.102;2022-12-07T15:07:05;7.45;;;2.75;;
32445;SDS011;18899;50.748;7.102;2022-12-07T15:09:35;13.07;;;4.03;;
32445;SDS011;18899;50.748;7.102;2022-12-07T15:12:01;10.20;;;3.47;;
32445;SDS011;18899;50.748;7.102;2022-12-07T15:14:27;6.75;;;3.70;;
32445;SDS011;18899;50.748;7.102;2022-12-07T15:16:53;10.75;;;3.25;;
32445;SDS011;18899;50.748;7.102;2022-12-07T15:19:23;6.97;;;3.53;;
32445;SDS011;18899;50.748;7.102;2022-12-07T15:21:50;9.55;;;3.78;;
32445;SDS011;18899;50.748;7.102;2022-12-07T15:24:17;13.38;;;5.03;;
32445;SDS011;18899;50.748;7.102;2022-12-07T15:26:42;17.33;;;4.03;;
32445;SDS011;18899;50.748;7.102;2022-12-07T15:29:08;9.57;;;3.92;;
32445;SDS011;18899;50.748;7.102;2022-12-07T15:31:35;10.52;;;4.95;;
32445;SDS011;18899;50.748;7.102;2022-12-07T15:34:01;10.73;;;4.45;;
32445;SDS011;18899;50.748;7.102;2022-12-07T15:36:28;10.82;;;4.32;;
32445;SDS011;18899;50.748;7.102;2022-12-07T15:38:55;11.00;;;4.50;;
32445;SDS011;18899;50.748;7.102;2022-12-07T15:41:21;9.55;;;4.63;;
32445;SDS011;18899;50.748;7.102;2022-12-07T15:43:47;7.60;;;4.25;;
32445;SDS011;18899;50.748;7.102;2022-12-07T15:46:35;7.57;;;4.00;;
32445;SDS011;18899;50.748;7.102;2022-12-07T15:49:02;14.00;;;4.50;;
32445;SDS011;18899;50.748;7.102;2022-12-07T15:51:29;12.27;;;5.13;;
32445;SDS011;18899;50.748;7.102;2022-12-07T15:53:55;11.27;;;5.13;;
32445;SDS011;18899;50.748;7.102;2022-12-07T15:56:22;13.35;;;5.57;;
32445;SDS011;18899;50.748;7.102;2022-12-07T15:58:48;10.55;;;4.95;;
32445;SDS011;18899;50.748;7.102;2022-12-07T16:01:14;11.77;;;4.93;;
32445;SDS011;18899;50.748;7.102;2022-12-07T16:03:43;9.38;;;5.00;;
32445;SDS011;18899;50.748;7.102;2022-12-07T16:06:09;11.10;;;4.25;;
32445;SDS011;18899;50.748;7.102;2022-12-07T16:08:35;15.07;;;4.78;;
32445;SDS011;18899;50.748;7.102;2022-12-07T16:11:05;11.48;;;4.97;;
32445;SDS011;18899;50.748;7.102;2022-12-07T16:13:31;10.95;;;4.78;;
32445;SDS011;18899;50.748;7.102;2022-12-07T16:15:57;11.75;;;4.57;;
32445;SDS011;18899;50.748;7.102;2022-12-07T16:18:23;8.43;;;4.85;;
32445;SDS011;18899;50.748;7.102;2022-12-07T16:20:48;12.93;;;5.35;;
32445;SDS011;18899;50.748;7.102;2022-12-07T16:23:14;13.63;;;5.35;;
32445;SDS011;18899;50.748;7.102;2022-12-07T16:25:40;11.48;;;4.90;;
32445;SDS011;18899;50.748;7.102;2022-12-07T16:28:06;9.23;;;5.30;;
32445;SDS011;18899;50.748;7.102;2022-12-07T16:30:33;13.07;;;5.07;;
32445;SDS011;18899;50.748;7.102;2022-12-07T16:32:59;9.55;;;5.47;;
32445;SDS011;18899;50.748;7.102;2022-12-07T16:35:24;13.10;;;6.43;;
32445;SDS011;18899;50.748;7.102;2022-12-07T16:37:50;13.93;;;5.50;;
32445;SDS011;18899;50.748;7.102;2022-12-07T16:40:15;12.45;;;5.70;;
32445;SDS011;18899;50.748;7.102;2022-12-07T16:42:41;7.63;;;4.78;;
32445;SDS011;18899;50.748;7.102;2022-12-07T16:45:06;10.48;;;5.38;;
32445;SDS011;18899;50.748;7.102;2022-12-07T16:47:32;12.02;;;5.70;;
32445;SDS011;18899;50.748;7.102;2022-12-07T16:49:58;13.32;;;5.15;;
32445;SDS011;18899;50.748;7.102;2022-12-07T16:52:23;13.13;;;5.25;;
32445;SDS011;18899;50.748;7.102;2022-12-07T16:54:49;10.88;;;5.05;;
32445;SDS011;18899;50.748;7.102;2022-12-07T16:57:15;9.40;;;5.10;;
32445;SDS011;18899;50.748;7.102;2022-12-07T16:59:41;11.77;;;5.63;;
32445;SDS011;18899;50.748;7.102;2022-12-07T17:02:09;12.93;;;5.63;;
32445;SDS011;18899;50.748;7.102;2022-12-07T17:04:36;13.20;;;5.60;;